Flugplatz Braunschweig Wolfsburg

Bericht für EDVE

vom 07.03. um 01:50 UTC

Wind 4 kt aus 280°

Sichtweite 10 km oder mehr

gering bewölkt in 1700 ft

bedeckt in 3600 ft

Temperatur 2.0°C

Taupunkt 2.0°C

Luftfeuchtigkeit 100%

Luftdruck 1026 hPa

EDVE 070150Z AUTO 28004KT 9999 // FEW017/// OVC036/// 02/02 Q1026
Keine Prognose (TAF) verfügbar.
Impressum